Time;durP1;ratioP1;P1;durP2;ratioP2;P2;SDS_P1;SDS_P2;PMS_P1;PMS_P2;Temp;Humidity;BMP_temperature;BMP_pressure;BME280_temperature;BME280_humidity;BME280_pressure;Samples;Min_cycle;Max_cycle;Signal;HPM_P1;HPM_P2
2021/03/18 00:01:49;;;;;;;12.33;9.03;;;;;;;9.23;64.91;99282.58;1723976;82;21199;-62
2021/03/18 00:04:19;;;;;;;15.72;9.28;;;;;;;9.20;64.95;99291.84;1723508;82;21178;-55
2021/03/18 00:06:47;;;;;;;13.50;9.53;;;;;;;9.20;65.07;99290.52;1731848;82;21602;-55
2021/03/18 00:09:18;;;;;;;12.68;8.98;;;;;;;9.20;65.08;99287.89;1726803;82;21190;-61
2021/03/18 00:11:48;;;;;;;12.98;8.85;;;;;;;9.19;64.97;99291.89;1750135;81;21328;-55
2021/03/18 00:14:22;;;;;;;10.20;7.50;;;;;;;9.19;65.01;99299.30;1733468;81;21683;-62
2021/03/18 00:16:50;;;;;;;12.45;7.97;;;;;;;9.17;65.01;99296.31;1721824;83;21216;-62
2021/03/18 00:19:20;;;;;;;11.28;7.62;;;;;;;9.18;64.96;99296.73;1723326;82;21159;-62
2021/03/18 00:21:48;;;;;;;10.95;7.53;;;;;;;9.16;64.88;99296.74;1720508;83;21275;-62
2021/03/18 00:24:16;;;;;;;12.43;8.75;;;;;;;9.15;64.98;99291.08;1733242;82;21184;-61
2021/03/18 00:26:43;;;;;;;12.82;8.05;;;;;;;9.14;64.90;99299.01;1735571;82;21185;-56
2021/03/18 00:29:12;;;;;;;13.50;7.90;;;;;;;9.09;64.91;99288.59;1729185;82;21223;-62
2021/03/18 00:31:41;;;;;;;13.58;8.65;;;;;;;9.09;64.93;99297.78;1716534;82;21150;-55
2021/03/18 00:34:09;;;;;;;15.30;9.18;;;;;;;9.03;64.97;99296.17;1719236;83;21309;-55
2021/03/18 00:36:37;;;;;;;13.72;9.13;;;;;;;9.00;65.00;99294.94;1715826;82;21126;-55
2021/03/18 00:39:08;;;;;;;12.73;8.53;;;;;;;8.97;65.07;99294.16;1738041;81;21181;-62
2021/03/18 00:41:37;;;;;;;14.35;9.15;;;;;;;8.97;65.14;99294.16;1729500;81;21182;-61
2021/03/18 00:44:05;;;;;;;16.57;9.33;;;;;;;8.94;65.21;99289.83;1719011;83;21186;-55
2021/03/18 00:46:34;;;;;;;14.45;9.20;;;;;;;8.96;65.20;99297.67;1727994;82;21151;-62
2021/03/18 00:49:03;;;;;;;13.55;8.95;;;;;;;8.93;65.15;99295.97;1693822;83;21179;-56
2021/03/18 00:51:31;;;;;;;15.35;9.30;;;;;;;8.93;65.21;99296.84;1749848;82;21219;-55
2021/03/18 00:53:59;;;;;;;15.48;9.85;;;;;;;8.90;65.21;99290.78;1748892;81;21170;-62
2021/03/18 00:56:26;;;;;;;16.65;10.65;;;;;;;8.88;65.25;99299.14;1731861;83;21304;-62
2021/03/18 00:59:02;;;;;;;17.32;12.05;;;;;;;8.90;65.23;99296.03;1815357;77;28438;-54
2021/03/18 01:01:30;;;;;;;17.87;10.70;;;;;;;8.85;65.40;99292.65;1772690;80;21155;-53
2021/03/18 01:03:59;;;;;;;16.55;9.55;;;;;;;8.86;65.35;99299.63;1762182;80;21147;-53
2021/03/18 01:06:29;;;;;;;18.60;10.50;;;;;;;8.82;65.49;99290.97;1777417;80;21111;-55
2021/03/18 01:08:59;;;;;;;17.10;10.53;;;;;;;8.83;65.45;99298.41;1792607;80;21115;-62
2021/03/18 01:11:37;;;;;;;21.25;11.83;;;;;;;8.82;65.58;99296.69;1793015;80;21154;-54
2021/03/18 01:14:09;;;;;;;20.82;11.75;;;;;;;8.81;65.55;99294.96;1783586;80;21365;-62
2021/03/18 01:16:41;;;;;;;19.35;11.08;;;;;;;8.77;65.58;99291.52;1769029;80;21107;-55
2021/03/18 01:19:09;;;;;;;19.52;12.70;;;;;;;8.74;65.61;99295.09;1762141;81;21170;-55
2021/03/18 01:21:49;;;;;;;18.52;11.38;;;;;;;8.73;65.62;99292.05;1762286;81;21167;-61
2021/03/18 01:24:23;;;;;;;20.25;10.70;;;;;;;8.68;65.69;99293.03;1763362;80;21139;-55
2021/03/18 01:26:53;;;;;;;20.68;11.68;;;;;;;8.66;65.72;99302.69;1792080;80;21139;-55
2021/03/18 01:29:25;;;;;;;19.30;11.63;;;;;;;8.67;65.76;99288.68;1749729;80;21128;-54
2021/03/18 01:32:07;;;;;;;22.17;13.10;;;;;;;8.62;65.70;99300.59;1789034;80;21123;-55
2021/03/18 01:34:53;;;;;;;20.12;11.63;;;;;;;8.56;65.91;99290.23;1761745;80;21174;-61
2021/03/18 01:37:21;;;;;;;19.17;12.18;;;;;;;8.55;65.82;99302.93;1762830;80;21527;-62
2021/03/18 01:39:49;;;;;;;24.27;13.45;;;;;;;8.52;65.86;99299.06;1762173;81;21174;-62
2021/03/18 01:42:17;;;;;;;23.67;14.15;;;;;;;8.46;65.99;99296.09;1770639;80;21253;-55
2021/03/18 01:44:45;;;;;;;21.52;12.80;;;;;;;8.46;66.04;99296.09;1759958;81;21284;-55
2021/03/18 01:47:12;;;;;;;19.98;12.55;;;;;;;8.43;66.02;99298.31;1755822;82;21183;-62
2021/03/18 01:49:40;;;;;;;23.87;14.15;;;;;;;8.41;66.06;99301.88;1760444;80;21135;-55
2021/03/18 01:52:08;;;;;;;21.42;13.45;;;;;;;8.43;66.04;99305.34;1766415;80;21206;-62
2021/03/18 01:54:36;;;;;;;20.35;12.73;;;;;;;8.39;66.12;99305.83;1758335;81;21582;-55
2021/03/18 01:57:05;;;;;;;24.60;14.55;;;;;;;8.34;66.18;99311.64;1761374;80;21154;-62
2021/03/18 01:59:32;;;;;;;26.12;16.32;;;;;;;8.34;66.21;99312.95;1769009;80;21511;-55
2021/03/18 02:02:00;;;;;;;22.55;12.82;;;;;;;8.34;66.26;99317.73;1779759;80;21134;-55
2021/03/18 02:04:29;;;;;;;27.32;15.85;;;;;;;8.33;66.24;99318.62;1792581;80;21123;-55
2021/03/18 02:06:57;;;;;;;26.33;15.32;;;;;;;8.34;66.22;99318.20;1776115;80;21151;-59
2021/03/18 02:09:25;;;;;;;24.45;14.85;;;;;;;8.31;66.23;99318.26;1774363;80;21103;-62
2021/03/18 02:11:53;;;;;;;24.77;15.03;;;;;;;8.30;66.22;99317.84;1791039;80;21148;-55
2021/03/18 02:14:21;;;;;;;24.67;14.90;;;;;;;8.30;66.30;99328.33;1789408;80;21119;-55
2021/03/18 02:16:50;;;;;;;20.95;12.98;;;;;;;8.31;66.21;99324.34;1762710;80;21598;-62
2021/03/18 02:19:51;;;;;;;26.17;17.05;;;;;;;8.29;66.25;99335.77;1787554;80;21468;-55
2021/03/18 02:22:55;;;;;;;27.07;16.30;;;;;;;8.30;66.11;99336.19;1769236;79;21154;-55
2021/03/18 02:25:49;;;;;;;21.75;13.43;;;;;;;8.31;66.16;99343.16;1761494;81;21119;-55
2021/03/18 02:28:50;;;;;;;23.25;14.40;;;;;;;8.32;66.25;99348.83;1791775;80;21155;-55
2021/03/18 02:31:33;;;;;;;21.37;13.88;;;;;;;8.30;66.11;99351.45;1784500;79;21691;-55
2021/03/18 02:34:38;;;;;;;25.57;15.38;;;;;;;8.30;66.12;99354.08;1834790;77;22152;-60
2021/03/18 02:37:12;;;;;;;27.30;15.30;;;;;;;8.26;66.07;99354.19;1771190;79;21589;-55
2021/03/18 02:39:46;;;;;;;24.63;13.65;;;;;;;8.19;66.09;99357.34;1761200;81;21256;-56
2021/03/18 02:42:17;;;;;;;23.30;14.28;;;;;;;8.16;66.17;99362.67;1762091;80;21293;-55
2021/03/18 02:44:45;;;;;;;22.15;13.30;;;;;;;7.46;67.93;99366.48;1767540;80;21115;-55
2021/03/18 02:47:13;;;;;;;23.90;14.43;;;;;;;7.53;68.24;99366.78;1761830;80;21627;-61
2021/03/18 02:49:45;;;;;;;24.40;14.98;;;;;;;7.93;66.76;99371.80;1752514;81;21142;-55
2021/03/18 02:52:19;;;;;;;26.42;15.80;;;;;;;7.97;66.50;99370.86;1728570;83;21165;-55
2021/03/18 02:54:47;;;;;;;25.30;14.95;;;;;;;7.72;67.22;99378.28;1758400;80;21142;-61
2021/03/18 02:57:15;;;;;;;24.85;14.33;;;;;;;7.92;66.65;99389.73;1761728;80;21269;-62
2021/03/18 02:59:43;;;;;;;23.62;14.33;;;;;;;7.94;66.56;99386.64;1731461;81;21284;-62
2021/03/18 03:02:15;;;;;;;24.75;15.00;;;;;;;7.94;66.53;99381.86;1728603;83;21191;-55
2021/03/18 03:04:43;;;;;;;21.10;13.45;;;;;;;7.89;66.56;99380.61;1767353;80;21272;-62
2021/03/18 03:07:12;;;;;;;27.17;16.00;;;;;;;7.83;66.70;99384.21;1760756;80;21151;-55
2021/03/18 03:09:44;;;;;;;26.85;16.10;;;;;;;7.79;66.74;99388.20;1737398;81;21320;-62
2021/03/18 03:12:12;;;;;;;22.58;14.75;;;;;;;7.81;66.75;99383.80;1746504;80;21159;-55
2021/03/18 03:14:40;;;;;;;21.85;13.22;;;;;;;7.55;67.67;99388.57;1761815;81;21477;-55
2021/03/18 03:17:10;;;;;;;22.05;14.07;;;;;;;7.76;67.10;99389.13;1750226;81;21113;-55
2021/03/18 03:19:39;;;;;;;23.38;14.43;;;;;;;7.82;66.87;99385.53;1728563;83;21182;-55
2021/03/18 03:22:07;;;;;;;28.17;15.55;;;;;;;7.84;66.82;99395.53;1757470;80;21145;-61
2021/03/18 03:24:35;;;;;;;26.52;15.80;;;;;;;7.86;66.73;99392.45;1761327;81;21162;-61
2021/03/18 03:27:04;;;;;;;27.85;16.77;;;;;;;7.87;66.70;99388.94;1758164;81;21300;-61
2021/03/18 03:29:32;;;;;;;25.40;16.60;;;;;;;7.86;66.71;99391.14;1743136;81;21146;-61
2021/03/18 03:31:59;;;;;;;27.05;15.88;;;;;;;7.83;66.58;99399.05;1787551;80;21137;-55
2021/03/18 03:34:27;;;;;;;28.35;16.57;;;;;;;7.82;66.58;99398.20;1780315;80;21131;-61
2021/03/18 03:36:56;;;;;;;27.22;17.02;;;;;;;7.84;66.59;99392.92;1760831;81;21147;-61
2021/03/18 03:39:23;;;;;;;26.48;15.65;;;;;;;7.86;66.57;99396.38;1768128;80;21076;-55
2021/03/18 03:41:51;;;;;;;27.80;16.15;;;;;;;7.82;66.48;99389.45;1761990;80;21610;-55
2021/03/18 03:44:20;;;;;;;27.02;15.68;;;;;;;7.83;66.42;99393.80;1760299;81;21174;-61
2021/03/18 03:46:49;;;;;;;25.97;14.75;;;;;;;7.80;66.45;99394.73;1758058;81;21158;-61
2021/03/18 03:49:17;;;;;;;28.73;17.35;;;;;;;7.82;66.45;99398.63;1767631;80;21178;-61
2021/03/18 03:52:18;;;;;;;29.57;17.57;;;;;;;7.81;66.34;99396.47;1761243;80;21176;-54
2021/03/18 03:54:51;;;;;;;25.60;15.38;;;;;;;7.83;66.20;99407.78;1754591;81;21240;-61
2021/03/18 03:57:30;;;;;;;28.17;16.50;;;;;;;7.84;66.15;99406.02;1734813;80;22243;-55
2021/03/18 03:59:58;;;;;;;25.40;16.53;;;;;;;7.81;66.16;99403.45;1761775;80;21265;-61
2021/03/18 04:02:29;;;;;;;31.10;17.87;;;;;;;7.82;66.14;99416.96;1759725;81;21843;-55
2021/03/18 04:04:57;;;;;;;29.40;17.02;;;;;;;7.80;66.07;99414.39;1757421;81;21151;-61
2021/03/18 04:07:30;;;;;;;26.42;16.12;;;;;;;7.80;66.12;99417.00;1753576;80;21118;-55
2021/03/18 04:10:00;;;;;;;25.45;15.95;;;;;;;7.81;66.13;99427.91;1761261;81;21159;-55
2021/03/18 04:12:33;;;;;;;28.47;17.82;;;;;;;7.80;66.12;99433.15;1759565;81;21182;-55
2021/03/18 04:15:06;;;;;;;25.65;16.65;;;;;;;7.80;66.01;99436.66;1736315;80;21122;-55
2021/03/18 04:17:33;;;;;;;30.88;18.45;;;;;;;7.79;65.90;99444.09;1766997;80;21313;-62
2021/03/18 04:20:05;;;;;;;25.70;16.20;;;;;;;7.76;66.05;99440.20;1760531;81;21155;-62
2021/03/18 04:22:33;;;;;;;27.32;16.77;;;;;;;7.77;66.11;99448.92;1759704;81;21406;-56
2021/03/18 04:25:01;;;;;;;27.75;16.90;;;;;;;7.78;66.04;99448.03;1743289;80;21535;-61
2021/03/18 04:27:28;;;;;;;30.08;16.40;;;;;;;7.78;65.98;99454.58;1694318;83;21166;-55
2021/03/18 04:29:57;;;;;;;25.32;15.13;;;;;;;7.73;65.99;99451.58;1753381;81;21554;-61
2021/03/18 04:32:25;;;;;;;31.97;16.97;;;;;;;7.74;66.32;99452.00;1758785;81;21163;-61
2021/03/18 04:34:54;;;;;;;25.30;15.70;;;;;;;7.82;66.29;99453.64;1753179;80;21123;-56
2021/03/18 04:37:22;;;;;;;26.50;14.98;;;;;;;7.93;66.14;99451.72;1754650;81;21146;-55
2021/03/18 04:39:50;;;;;;;22.90;15.03;;;;;;;7.99;65.98;99454.25;1734846;81;21147;-61
2021/03/18 04:42:17;;;;;;;28.87;15.58;;;;;;;8.00;65.72;99461.22;1754418;81;21175;-55
2021/03/18 04:44:45;;;;;;;25.35;15.30;;;;;;;8.03;65.84;99460.28;1754376;80;21120;-61
2021/03/18 04:47:17;;;;;;;27.50;17.25;;;;;;;8.08;65.82;99465.47;1754664;81;21125;-56
2021/03/18 04:49:46;;;;;;;25.95;15.98;;;;;;;8.09;65.50;99463.27;1733385;81;21257;-60
2021/03/18 04:52:16;;;;;;;27.87;16.80;;;;;;;8.09;65.45;99462.81;1751151;80;21138;-54
2021/03/18 04:54:45;;;;;;;28.65;16.73;;;;;;;8.09;65.53;99471.98;1753713;81;21126;-55
2021/03/18 04:57:17;;;;;;;25.30;16.30;;;;;;;8.09;65.00;99473.30;1754382;81;21130;-61
2021/03/18 04:59:46;;;;;;;22.82;14.93;;;;;;;8.01;64.96;99474.74;1754213;81;21087;-61
2021/03/18 05:02:14;;;;;;;26.30;15.78;;;;;;;7.90;64.93;99480.59;1755880;80;21119;-61
2021/03/18 05:04:42;;;;;;;24.43;15.32;;;;;;;7.89;65.12;99488.91;1710855;81;21114;-61
2021/03/18 05:07:14;;;;;;;28.60;16.45;;;;;;;7.74;65.19;99495.22;1729829;81;21119;-55
2021/03/18 05:09:42;;;;;;;25.85;14.78;;;;;;;7.77;65.25;99489.09;1735516;81;21114;-55
2021/03/18 05:12:10;;;;;;;26.87;15.60;;;;;;;7.71;65.17;99493.11;1755593;80;21631;-55
2021/03/18 05:14:38;;;;;;;28.80;15.48;;;;;;;7.71;65.21;99499.66;1753642;81;21517;-55
2021/03/18 05:17:06;;;;;;;27.48;15.45;;;;;;;7.73;65.30;99505.73;1753462;81;21144;-55
2021/03/18 05:19:36;;;;;;;27.77;14.65;;;;;;;7.75;65.37;99502.66;1753655;80;21578;-55
2021/03/18 05:22:04;;;;;;;27.40;14.68;;;;;;;7.77;65.31;99503.50;1730185;81;21146;-55
2021/03/18 05:24:37;;;;;;;24.52;14.28;;;;;;;7.74;65.22;99511.41;1761831;81;21111;-61
2021/03/18 05:27:06;;;;;;;24.95;15.10;;;;;;;7.73;65.34;99510.52;1759910;81;21922;-62
2021/03/18 05:29:34;;;;;;;25.68;14.03;;;;;;;7.72;65.34;99515.80;1701573;83;21158;-61
2021/03/18 05:32:03;;;;;;;26.80;14.80;;;;;;;7.70;65.45;99517.14;1694987;84;21163;-55
2021/03/18 05:34:31;;;;;;;26.20;14.95;;;;;;;7.73;65.59;99525.39;1719121;83;21183;-61
2021/03/18 05:36:58;;;;;;;24.43;13.85;;;;;;;7.73;65.40;99527.55;1717569;83;21526;-62
2021/03/18 05:39:26;;;;;;;25.23;15.13;;;;;;;7.68;65.41;99532.44;1689645;83;21143;-55
2021/03/18 05:41:54;;;;;;;23.42;14.25;;;;;;;7.70;65.37;99534.17;1698462;83;21721;-62
2021/03/18 05:44:22;;;;;;;22.85;13.43;;;;;;;7.62;65.38;99525.97;1700044;84;21321;-62
2021/03/18 05:46:49;;;;;;;23.95;14.70;;;;;;;7.72;65.23;99536.75;1704338;83;21643;-62
2021/03/18 05:49:18;;;;;;;24.05;13.72;;;;;;;7.73;65.24;99534.55;1750127;80;21126;-55
2021/03/18 05:51:47;;;;;;;19.67;11.05;;;;;;;7.72;65.30;99535.44;1747712;82;21114;-62
2021/03/18 05:54:16;;;;;;;20.08;12.30;;;;;;;7.71;65.31;99540.26;1697551;82;21645;-62
2021/03/18 05:56:43;;;;;;;16.62;11.03;;;;;;;7.72;65.10;99543.30;1746988;82;21171;-55
2021/03/18 05:59:13;;;;;;;21.85;13.00;;;;;;;7.73;65.27;99543.72;1747402;80;21392;-61
2021/03/18 06:01:42;;;;;;;22.20;12.20;;;;;;;7.74;65.29;99549.38;1739726;82;21362;-62
2021/03/18 06:04:10;;;;;;;19.20;11.68;;;;;;;7.78;65.31;99552.81;1748226;81;21269;-61
2021/03/18 06:06:40;;;;;;;23.47;13.28;;;;;;;7.92;65.01;99559.19;1753475;81;21666;-55
2021/03/18 06:09:07;;;;;;;18.95;12.43;;;;;;;7.93;64.90;99565.70;1719998;82;21142;-55
2021/03/18 06:11:35;;;;;;;20.25;12.53;;;;;;;7.87;65.00;99569.72;1744785;81;21156;-61
2021/03/18 06:14:03;;;;;;;29.02;17.85;;;;;;;7.88;64.96;99568.41;1724433;82;21123;-61
2021/03/18 06:16:31;;;;;;;20.37;13.43;;;;;;;7.93;64.78;99572.25;1738660;82;21529;-55
2021/03/18 06:19:01;;;;;;;21.42;13.15;;;;;;;7.92;64.87;99574.45;1753150;82;21271;-62
2021/03/18 06:21:51;;;;;;;40.63;22.05;;;;;;;7.87;65.18;99578.47;1753820;82;21585;-62
2021/03/18 06:24:20;;;;;;;21.45;13.83;;;;;;;7.87;65.04;99581.08;1753691;82;21586;-61
2021/03/18 06:26:48;;;;;;;22.45;12.73;;;;;;;7.81;64.79;99590.33;1741533;82;21192;-56
2021/03/18 06:29:36;;;;;;;17.52;11.38;;;;;;;7.71;64.98;99583.05;1718677;82;21171;-62
2021/03/18 06:32:20;;;;;;;18.90;12.28;;;;;;;7.73;64.92;99598.73;1717521;83;21158;-57
2021/03/18 06:34:55;;;;;;;17.17;11.03;;;;;;;7.70;64.76;99600.08;1741931;82;21140;-62
2021/03/18 06:37:46;;;;;;;21.62;12.15;;;;;;;7.69;65.06;99608.40;1748728;82;21157;-62
2021/03/18 06:40:18;;;;;;;;;;;;;;;7.79;64.76;99610.87;1762715;81;21602;-61
2021/03/18 06:43:00;;;;;;;16.12;10.68;;;;;;;7.75;64.48;99616.61;1769518;81;20285;-62
2021/03/18 06:45:31;;;;;;;15.63;10.58;;;;;;;7.72;64.47;99623.20;1743684;82;21123;-55
2021/03/18 06:48:13;;;;;;;18.75;11.40;;;;;;;7.73;64.53;99628.86;1737819;82;21171;-56
2021/03/18 06:50:45;;;;;;;21.95;10.75;;;;;;;7.67;64.32;99624.58;1736467;80;21114;-56
2021/03/18 06:53:24;;;;;;;21.57;11.38;;;;;;;7.64;64.27;99633.78;1750048;81;21152;-62
2021/03/18 06:55:53;;;;;;;15.48;10.15;;;;;;;7.65;64.59;99630.70;1751994;82;21147;-56
2021/03/18 06:58:26;;;;;;;21.33;12.07;;;;;;;7.69;64.26;99633.70;1737961;82;21170;-62
2021/03/18 07:00:59;;;;;;;18.12;11.03;;;;;;;7.69;64.17;99634.59;1755872;82;21135;-62
2021/03/18 07:03:35;;;;;;;21.73;13.55;;;;;;;7.72;64.16;99638.91;1747211;82;21175;-55
2021/03/18 07:06:07;;;;;;;113.15;65.80;;;;;;;7.70;64.08;99636.75;1699642;84;21138;-56
2021/03/18 07:08:40;;;;;;;595.10;344.68;;;;;;;7.63;64.05;99639.90;1753852;81;21606;-55
2021/03/18 07:11:21;;;;;;;417.18;267.00;;;;;;;7.66;64.03;99637.67;1754778;82;21151;-55
2021/03/18 07:13:52;;;;;;;76.85;57.33;;;;;;;7.67;64.20;99636.79;1756078;81;21583;-62
2021/03/18 07:16:19;;;;;;;35.25;22.25;;;;;;;7.69;64.18;99631.97;1755088;82;21328;-62
2021/03/18 07:18:57;;;;;;;32.35;22.40;;;;;;;7.74;64.22;99630.59;1756331;81;21305;-56
2021/03/18 07:21:39;;;;;;;75.42;63.08;;;;;;;7.74;64.11;99635.83;1756352;82;21293;-55
2021/03/18 07:24:31;;;;;;;54.00;47.65;;;;;;;7.75;64.04;99633.64;1756336;81;21151;-63
2021/03/18 07:27:10;;;;;;;458.85;305.92;;;;;;;7.74;64.17;99630.59;1756328;82;21638;-63
2021/03/18 07:29:46;;;;;;;170.82;114.05;;;;;;;7.75;65.02;99624.47;1755047;82;21207;-63
2021/03/18 07:32:14;;;;;;;66.50;51.13;;;;;;;7.96;65.35;99628.55;1750704;82;21624;-55
2021/03/18 07:34:44;;;;;;;42.10;33.50;;;;;;;8.14;65.03;99631.82;1749801;81;21321;-62
2021/03/18 07:37:12;;;;;;;21.57;16.50;;;;;;;8.30;65.21;99636.39;1747747;81;21180;-55
2021/03/18 07:39:41;;;;;;;17.42;13.00;;;;;;;8.48;64.66;99644.42;1746684;82;21615;-62
2021/03/18 07:42:09;;;;;;;17.17;13.85;;;;;;;8.52;64.06;99648.77;1746524;82;21147;-56
2021/03/18 07:44:37;;;;;;;16.32;12.13;;;;;;;8.44;63.42;99646.66;1745509;82;21151;-62
2021/03/18 07:47:05;;;;;;;15.63;11.18;;;;;;;8.37;63.39;99643.28;1749462;82;21682;-62
2021/03/18 07:49:46;;;;;;;15.85;10.95;;;;;;;8.32;63.44;99651.66;1746684;82;21599;-61
2021/03/18 07:52:20;;;;;;;14.68;9.95;;;;;;;8.24;63.30;99643.87;1746514;81;21163;-62
2021/03/18 07:54:49;;;;;;;14.43;11.18;;;;;;;8.12;62.97;99649.32;1730914;82;21178;-62
2021/03/18 07:57:17;;;;;;;18.55;12.13;;;;;;;8.05;63.24;99647.20;1746829;81;21282;-56
2021/03/18 07:59:45;;;;;;;20.23;16.17;;;;;;;8.05;63.40;99647.20;1746589;82;21151;-62
2021/03/18 08:02:22;;;;;;;22.50;18.40;;;;;;;7.97;63.69;99647.75;1745957;81;21685;-63
2021/03/18 08:04:53;;;;;;;29.82;17.42;;;;;;;7.92;64.05;99646.97;1743156;82;21119;-62
2021/03/18 08:07:46;;;;;;;21.37;14.58;;;;;;;7.91;64.34;99648.71;1738929;82;21200;-55
2021/03/18 08:10:26;;;;;;;16.12;13.45;;;;;;;7.97;64.58;99650.37;1739440;82;21187;-56
2021/03/18 08:13:00;;;;;;;18.07;12.40;;;;;;;7.99;64.13;99642.93;1711151;84;21182;-62
2021/03/18 08:15:35;;;;;;;17.45;13.50;;;;;;;8.04;64.32;99643.73;1717039;83;21131;-62
2021/03/18 08:18:20;;;;;;;15.95;14.05;;;;;;;8.12;64.37;99642.77;1716882;83;21151;-62
2021/03/18 08:20:56;;;;;;;15.60;11.75;;;;;;;8.21;64.54;99644.38;1706639;82;21115;-55
2021/03/18 08:23:32;;;;;;;21.70;14.50;;;;;;;8.32;64.78;99654.28;1735882;82;21539;-56
2021/03/18 08:26:11;;;;;;;13.98;12.40;;;;;;;8.43;64.55;99660.67;1748307;81;21555;-56
2021/03/18 08:28:59;;;;;;;15.00;12.18;;;;;;;8.40;63.55;99661.56;1748114;82;21143;-62
2021/03/18 08:31:36;;;;;;;14.95;12.88;;;;;;;8.51;63.35;99671.06;1746215;81;21127;-62
2021/03/18 08:34:05;;;;;;;16.00;13.72;;;;;;;8.45;63.68;99674.63;1722624;82;21163;-62
2021/03/18 08:36:42;;;;;;;16.75;13.20;;;;;;;8.44;63.45;99672.89;1720212;83;21119;-56
2021/03/18 08:39:12;;;;;;;12.23;10.60;;;;;;;8.41;63.36;99682.96;1722653;82;21197;-56
2021/03/18 08:41:43;;;;;;;14.60;12.10;;;;;;;8.26;62.82;99686.67;1745170;82;21182;-62
2021/03/18 08:44:26;;;;;;;13.75;10.72;;;;;;;8.22;63.10;99698.09;1754459;82;21144;-56
2021/03/18 08:47:03;;;;;;;14.73;11.38;;;;;;;8.18;63.26;99695.08;1756007;81;21146;-56
2021/03/18 08:49:40;;;;;;;14.50;11.05;;;;;;;8.18;63.21;99692.03;1754708;81;21140;-62
2021/03/18 08:52:20;;;;;;;15.85;11.88;;;;;;;8.18;63.38;99689.41;1754742;82;21540;-56
2021/03/18 08:54:50;;;;;;;15.08;11.33;;;;;;;8.23;63.65;99683.24;1736952;82;21147;-62
2021/03/18 08:57:24;;;;;;;14.85;10.40;;;;;;;8.32;63.66;99687.05;1749531;81;21150;-56
2021/03/18 09:00:06;;;;;;;14.78;10.70;;;;;;;8.42;63.56;99683.84;1746556;82;21568;-61
2021/03/18 09:02:35;;;;;;;13.45;9.43;;;;;;;8.47;63.67;99684.19;1751120;81;21176;-63
2021/03/18 09:05:16;;;;;;;14.55;11.68;;;;;;;8.54;63.99;99681.08;1749807;82;21203;-62
2021/03/18 09:07:47;;;;;;;17.80;11.78;;;;;;;8.68;63.76;99689.16;1749246;82;21123;-62
2021/03/18 09:10:23;;;;;;;20.65;11.38;;;;;;;8.77;63.50;99699.52;1742792;82;21207;-57
2021/03/18 09:12:58;;;;;;;14.45;10.28;;;;;;;8.78;63.41;99702.14;1747770;82;21127;-61
2021/03/18 09:15:37;;;;;;;16.57;9.85;;;;;;;8.72;62.63;99701.34;1748110;82;21138;-62
2021/03/18 09:18:21;;;;;;;12.77;9.00;;;;;;;8.75;62.75;99709.17;1752849;82;21165;-62
2021/03/18 09:20:57;;;;;;;14.25;11.60;;;;;;;8.81;62.95;99714.33;1737582;82;21617;-63
2021/03/18 09:23:28;;;;;;;20.05;14.07;;;;;;;8.83;62.75;99707.30;1756043;82;21273;-62
2021/03/18 09:26:01;;;;;;;15.88;10.18;;;;;;;8.89;62.94;99712.45;1756189;82;21707;-57
2021/03/18 09:28:34;;;;;;;14.75;10.13;;;;;;;8.97;63.06;99711.47;1755686;81;21157;-57
2021/03/18 09:31:02;;;;;;;13.30;10.65;;;;;;;9.05;63.10;99716.16;1756030;82;21163;-57
2021/03/18 09:33:52;;;;;;;16.62;12.25;;;;;;;9.17;63.30;99715.92;1756167;81;21143;-63
2021/03/18 09:36:26;;;;;;;;;;;;;;;9.30;62.64;99714.41;1742689;81;21182;-63
2021/03/18 09:39:05;;;;;;;15.60;12.40;;;;;;;9.26;61.90;99721.48;1735881;83;20191;-57
2021/03/18 09:41:37;;;;;;;15.83;11.57;;;;;;;9.30;61.77;99724.45;1749410;81;21153;-55
2021/03/18 09:44:16;;;;;;;13.13;10.05;;;;;;;9.22;62.19;99712.77;1754811;82;21292;-56
2021/03/18 09:46:53;;;;;;;10.20;8.63;;;;;;;9.31;62.35;99717.45;1755769;81;21241;-63
2021/03/18 09:49:39;;;;;;;10.53;8.25;;;;;;;9.37;62.37;99716.88;1755506;82;21184;-62
2021/03/18 09:52:11;;;;;;;11.80;8.60;;;;;;;9.43;62.11;99721.61;1724840;81;21294;-63
2021/03/18 09:54:40;;;;;;;15.68;11.20;;;;;;;9.42;61.48;99721.19;1727458;82;21299;-63
2021/03/18 09:57:10;;;;;;;11.55;9.15;;;;;;;9.36;61.30;99728.28;1751620;81;21155;-56
2021/03/18 09:59:38;;;;;;;13.62;9.73;;;;;;;9.33;61.31;99729.65;1743314;82;21601;-56
2021/03/18 10:02:07;;;;;;;13.35;9.10;;;;;;;9.26;60.96;99731.10;1725853;83;21166;-63
2021/03/18 10:04:41;;;;;;;14.58;11.75;;;;;;;9.22;61.00;99736.87;1735968;81;21164;-63
2021/03/18 10:07:09;;;;;;;17.12;12.10;;;;;;;9.18;60.69;99729.94;1755297;81;21156;-64
2021/03/18 10:09:45;;;;;;;10.70;8.80;;;;;;;9.15;60.76;99728.67;1755421;82;21167;-56
2021/03/18 10:12:21;;;;;;;9.98;7.50;;;;;;;9.12;60.88;99733.97;1755230;82;21163;-56
2021/03/18 10:15:05;;;;;;;13.05;8.03;;;;;;;9.13;60.88;99727.83;1755360;81;21159;-57
2021/03/18 10:17:37;;;;;;;11.78;8.13;;;;;;;9.12;61.02;99736.13;1752883;82;21137;-62
2021/03/18 10:20:10;;;;;;;10.78;8.20;;;;;;;9.10;61.01;99744.48;1724944;83;21162;-56
2021/03/18 10:22:43;;;;;;;11.12;8.13;;;;;;;9.14;61.15;99734.34;1725667;82;21446;-57
2021/03/18 10:25:15;;;;;;;10.78;8.50;;;;;;;9.21;61.06;99740.39;1755665;82;21166;-64
2021/03/18 10:27:48;;;;;;;11.95;8.40;;;;;;;9.23;60.82;99734.20;1755686;82;21126;-57
2021/03/18 10:30:22;;;;;;;9.23;7.58;;;;;;;9.25;60.96;99735.50;1756059;81;21593;-64
2021/03/18 10:33:23;;;;;;;11.68;8.28;;;;;;;9.31;60.76;99733.20;1755395;82;21346;-56
2021/03/18 10:35:58;;;;;;;11.22;8.45;;;;;;;9.35;60.45;99737.05;1740412;82;21152;-63
2021/03/18 10:38:32;;;;;;;11.90;7.83;;;;;;;9.40;60.60;99738.73;1743112;82;21264;-63
2021/03/18 10:41:11;;;;;;;9.53;7.78;;;;;;;9.41;60.01;99743.98;1738088;82;21706;-56
2021/03/18 10:43:41;;;;;;;9.75;7.33;;;;;;;9.38;60.20;99755.38;1747120;82;21181;-58
2021/03/18 10:46:12;;;;;;;13.88;8.83;;;;;;;9.35;59.88;99762.00;1747306;82;21102;-65
2021/03/18 10:48:40;;;;;;;12.88;8.53;;;;;;;9.26;59.71;99770.49;1746613;82;21190;-58
2021/03/18 10:51:12;;;;;;;14.53;9.33;;;;;;;9.19;59.56;99774.98;1731810;82;21157;-65
2021/03/18 10:53:42;;;;;;;13.13;8.93;;;;;;;9.11;59.36;99775.09;1729321;83;21292;-64
2021/03/18 10:56:22;;;;;;;14.55;8.85;;;;;;;9.11;60.12;99775.55;1743694;82;21176;-64
2021/03/18 10:58:51;;;;;;;12.33;9.40;;;;;;;9.19;60.53;99769.28;1747730;82;21286;-64
2021/03/18 11:01:26;;;;;;;15.40;12.25;;;;;;;9.27;60.47;99772.23;1733701;81;21189;-57
2021/03/18 11:04:04;;;;;;;18.65;11.55;;;;;;;9.34;60.65;99769.46;1742311;82;21169;-64
2021/03/18 11:06:32;;;;;;;17.92;11.48;;;;;;;9.45;60.60;99770.61;1747135;82;21298;-63
2021/03/18 11:09:01;;;;;;;16.10;11.93;;;;;;;9.47;60.03;99760.06;1751904;82;21574;-56
2021/03/18 11:11:32;;;;;;;18.98;12.47;;;;;;;9.46;59.81;99765.78;1712505;83;21166;-64
2021/03/18 11:14:08;;;;;;;;;;;;;;;9.41;59.41;99764.99;1714341;83;21473;-64
2021/03/18 11:16:35;;;;;;;24.60;15.78;;;;;;;9.37;59.83;99765.47;1678022;85;20171;-56
2021/03/18 11:19:06;;;;;;;22.35;15.10;;;;;;;9.40;59.56;99774.19;1704623;84;21602;-56
2021/03/18 11:21:39;;;;;;;27.05;16.12;;;;;;;9.23;58.84;99769.65;1747728;82;21168;-56
2021/03/18 11:24:11;;;;;;;27.65;19.65;;;;;;;9.29;59.38;99769.13;1747612;82;21386;-64
2021/03/18 11:26:53;;;;;;;26.17;16.80;;;;;;;9.31;59.35;99771.28;1747772;82;21672;-58
2021/03/18 11:29:26;;;;;;;27.62;17.20;;;;;;;9.28;59.41;99780.52;1741134;82;21149;-65
2021/03/18 11:31:57;;;;;;;27.55;15.93;;;;;;;9.34;59.50;99780.43;1744176;82;21169;-65
2021/03/18 11:34:32;;;;;;;29.85;21.50;;;;;;;9.35;59.27;99783.02;1742375;81;21153;-65
2021/03/18 11:37:26;;;;;;;26.48;16.05;;;;;;;9.40;59.41;99785.58;1767699;81;21189;-65
2021/03/18 11:40:06;;;;;;;20.60;13.18;;;;;;;9.47;59.52;99798.16;1825392;78;21299;-65
2021/03/18 11:42:34;;;;;;;24.20;13.80;;;;;;;9.46;59.30;99790.73;1804707;78;21740;-64
2021/03/18 11:45:04;;;;;;;25.50;12.98;;;;;;;9.52;59.54;99795.01;1787310;80;21581;-58
2021/03/18 11:47:32;;;;;;;21.80;12.78;;;;;;;9.59;59.32;99790.06;1768258;80;21166;-56
2021/03/18 11:50:01;;;;;;;19.55;11.30;;;;;;;9.64;58.93;99794.80;1723451;83;21125;-64
2021/03/18 11:52:31;;;;;;;22.17;12.73;;;;;;;9.69;58.73;99789.91;1723522;83;21197;-58